Time;durP1;ratioP1;P1;durP2;ratioP2;P2;SDS_P1;SDS_P2;PMS_P1;PMS_P2;Temp;Humidity;BMP_temperature;BMP_pressure;BME280_temperature;BME280_humidity;BME280_pressure;Samples;Min_cycle;Max_cycle;Signal;HPM_P1;HPM_P2
2022/08/18 00:00:00;;;;;;;21.05;4.68;;;22.40;95.90;;;;;;4955026;28;20039;-71
2022/08/18 00:02:29;;;;;;;35.00;6.68;;;22.40;96.00;;;;;;4948672;28;20091;-71
2022/08/18 00:04:56;;;;;;;17.55;5.38;;;22.40;96.00;;;;;;4938905;28;20467;-71
2022/08/18 00:07:28;;;;;;;17.58;4.30;;;22.40;96.10;;;;;;4937631;28;20467;-71
2022/08/18 00:09:55;;;;;;;19.02;4.45;;;22.40;96.10;;;;;;4938054;28;20501;-71
2022/08/18 00:12:25;;;;;;;26.38;4.10;;;22.40;96.10;;;;;;4946843;28;20503;-71
2022/08/18 00:14:52;;;;;;;14.80;4.22;;;22.50;96.20;;;;;;4952015;28;20035;-71
2022/08/18 00:17:18;;;;;;;21.50;4.65;;;22.40;96.20;;;;;;4948029;28;20079;-70
2022/08/18 00:19:44;;;;;;;18.38;4.45;;;22.50;96.20;;;;;;4943610;28;20031;-70
2022/08/18 00:22:12;;;;;;;25.27;5.60;;;22.50;96.20;;;;;;4955656;28;20034;-71
2022/08/18 00:24:38;;;;;;;19.10;4.25;;;22.50;96.30;;;;;;4943637;28;20040;-71
2022/08/18 00:27:04;;;;;;;16.75;4.05;;;22.50;96.30;;;;;;4955085;28;20050;-70
2022/08/18 00:29:30;;;;;;;20.55;4.63;;;22.50;96.30;;;;;;4942427;28;20095;-71
2022/08/18 00:31:57;;;;;;;22.05;4.10;;;22.50;96.30;;;;;;4955813;28;20051;-71
2022/08/18 00:34:23;;;;;;;18.95;4.45;;;22.60;96.30;;;;;;4946369;28;20039;-71
2022/08/18 00:36:49;;;;;;;20.80;4.35;;;22.60;96.30;;;;;;4955216;28;20050;-71
2022/08/18 00:39:15;;;;;;;19.65;4.03;;;22.50;96.30;;;;;;4954040;28;20027;-71
2022/08/18 00:41:41;;;;;;;20.75;5.30;;;22.50;96.30;;;;;;4951945;28;20054;-70
2022/08/18 00:44:07;;;;;;;17.85;4.75;;;22.60;96.60;;;;;;4955605;28;20023;-71
2022/08/18 00:46:35;;;;;;;18.52;5.03;;;22.60;96.30;;;;;;4955167;28;20027;-71
2022/08/18 00:49:03;;;;;;;30.65;4.43;;;22.60;96.30;;;;;;4954139;28;20491;-70
2022/08/18 00:51:33;;;;;;;17.73;4.30;;;22.60;96.20;;;;;;4955126;28;20042;-71
2022/08/18 00:54:07;;;;;;;17.48;4.28;;;22.60;96.20;;;;;;4951319;28;20032;-71
2022/08/18 00:56:39;;;;;;;19.25;4.60;;;22.70;96.20;;;;;;4946431;28;20491;-71
2022/08/18 00:59:12;;;;;;;14.27;4.25;;;22.60;96.10;;;;;;4941979;28;20087;-71
2022/08/18 01:01:40;;;;;;;22.02;4.70;;;22.60;96.10;;;;;;4954691;28;20047;-71
2022/08/18 01:04:13;;;;;;;17.75;4.70;;;22.60;96.00;;;;;;4948258;28;20039;-71
2022/08/18 01:06:44;;;;;;;17.23;3.90;;;22.60;96.00;;;;;;4950736;28;20027;-71
2022/08/18 01:09:10;;;;;;;13.15;4.00;;;22.60;95.90;;;;;;4943082;28;20040;-71
2022/08/18 01:11:37;;;;;;;15.07;3.70;;;22.60;95.90;;;;;;4945052;28;20042;-71
2022/08/18 01:14:06;;;;;;;28.88;6.05;;;22.60;95.80;;;;;;4954568;28;20058;-71
2022/08/18 01:22:27;;;;;;;17.20;4.53;;;22.60;95.80;;;;;;4942337;28;20031;-71
2022/08/18 01:27:42;;;;;;;15.68;3.95;;;22.50;95.70;;;;;;4944841;28;20035;-71
2022/08/18 01:30:12;;;;;;;12.63;3.30;;;22.50;95.70;;;;;;4942458;28;20028;-71
2022/08/18 01:32:39;;;;;;;15.35;3.47;;;22.50;95.70;;;;;;4948524;28;20050;-71
2022/08/18 01:35:09;;;;;;;14.02;3.42;;;22.50;95.70;;;;;;4947739;28;20106;-71
2022/08/18 01:37:35;;;;;;;13.50;3.38;;;22.50;95.80;;;;;;4947238;28;20046;-71
2022/08/18 01:40:05;;;;;;;20.15;3.75;;;22.50;95.80;;;;;;4954573;28;20027;-71
2022/08/18 01:42:30;;;;;;;12.77;3.42;;;22.40;95.70;;;;;;4952974;28;20438;-71
2022/08/18 01:44:56;;;;;;;12.13;3.20;;;22.40;95.60;;;;;;4946476;28;20028;-71
2022/08/18 01:47:22;;;;;;;14.73;3.10;;;22.40;95.50;;;;;;4946976;28;20039;-71
2022/08/18 01:49:48;;;;;;;13.75;3.17;;;22.40;95.50;;;;;;4953227;28;20031;-71
2022/08/18 01:52:19;;;;;;;15.27;3.67;;;22.40;95.40;;;;;;4952827;28;20094;-71
2022/08/18 01:54:45;;;;;;;13.73;3.58;;;22.30;95.40;;;;;;4946034;28;20476;-71
2022/08/18 01:57:12;;;;;;;11.15;3.17;;;22.30;95.40;;;;;;4935812;28;20079;-71
2022/08/18 01:59:38;;;;;;;15.48;3.80;;;22.30;95.50;;;;;;4936179;28;20032;-71
2022/08/18 02:02:04;;;;;;;12.63;3.50;;;22.30;95.50;;;;;;4945751;28;20479;-71
2022/08/18 02:04:32;;;;;;;22.23;4.88;;;22.30;95.50;;;;;;4952553;28;20035;-71
2022/08/18 02:06:59;;;;;;;17.73;3.50;;;22.30;95.60;;;;;;4938881;28;21132;-71
2022/08/18 02:09:26;;;;;;;28.75;3.80;;;22.30;95.80;;;;;;4952901;28;20042;-71
2022/08/18 02:11:52;;;;;;;23.73;3.65;;;22.30;95.90;;;;;;4961823;28;20113;-71
2022/08/18 02:14:18;;;;;;;23.92;3.80;;;22.20;96.00;;;;;;4953188;28;20087;-70
2022/08/18 02:16:44;;;;;;;23.15;4.22;;;22.30;96.10;;;;;;4940389;28;20448;-71
2022/08/18 02:19:11;;;;;;;20.38;4.20;;;22.30;96.20;;;;;;4945539;28;20028;-71
2022/08/18 02:21:37;;;;;;;30.98;4.47;;;22.30;96.30;;;;;;4934502;28;20067;-71
2022/08/18 02:24:03;;;;;;;26.05;4.60;;;22.30;96.50;;;;;;4935308;28;20102;-71
2022/08/18 02:26:29;;;;;;;19.23;3.80;;;22.20;96.40;;;;;;4949253;28;20057;-71
2022/08/18 02:28:56;;;;;;;23.80;4.78;;;22.30;96.40;;;;;;4953511;28;20042;-71
2022/08/18 02:31:23;;;;;;;16.20;3.33;;;22.30;96.40;;;;;;4951104;28;20029;-71
2022/08/18 02:33:50;;;;;;;19.27;3.47;;;22.30;96.50;;;;;;4942466;28;20471;-71
2022/08/18 02:36:15;;;;;;;19.80;4.10;;;22.30;96.50;;;;;;4953206;28;20365;-71
2022/08/18 02:38:41;;;;;;;25.90;3.88;;;22.30;96.70;;;;;;4945300;28;20038;-71
2022/08/18 02:41:10;;;;;;;19.17;3.92;;;22.30;96.60;;;;;;4946424;28;20547;-71
2022/08/18 02:43:37;;;;;;;13.27;3.78;;;22.30;96.60;;;;;;4943588;28;20039;-71
2022/08/18 02:46:04;;;;;;;17.00;3.67;;;22.30;96.60;;;;;;4951867;28;20479;-71
2022/08/18 02:48:33;;;;;;;12.35;3.53;;;22.30;96.60;;;;;;4952620;28;20490;-71
2022/08/18 02:51:08;;;;;;;22.70;4.55;;;22.30;96.60;;;;;;4940373;28;20506;-71
2022/08/18 02:53:34;;;;;;;15.73;4.13;;;22.30;96.60;;;;;;4953475;28;20035;-70
2022/08/18 02:56:28;;;;;;;17.08;3.80;;;22.30;96.70;;;;;;4947987;28;20024;-71
2022/08/18 02:59:00;;;;;;;21.67;4.80;;;22.30;96.70;;;;;;4947106;28;20039;-71
2022/08/18 03:01:29;;;;;;;20.45;4.40;;;22.40;96.80;;;;;;4944251;28;20051;-71
2022/08/18 03:03:56;;;;;;;18.35;4.00;;;22.40;96.90;;;;;;4947789;28;20035;-71
2022/08/18 03:06:22;;;;;;;16.92;3.80;;;22.40;96.80;;;;;;4953834;28;20035;-70
2022/08/18 03:08:51;;;;;;;24.67;4.10;;;22.30;96.90;;;;;;4952336;28;20023;-71
2022/08/18 03:11:19;;;;;;;13.48;3.50;;;22.30;97.00;;;;;;4961601;28;20039;-71
2022/08/18 03:13:45;;;;;;;20.23;3.47;;;22.40;96.80;;;;;;4939475;28;20039;-71
2022/08/18 03:16:11;;;;;;;14.73;3.47;;;22.40;97.00;;;;;;4943468;28;20502;-71
2022/08/18 03:18:37;;;;;;;17.15;4.10;;;22.30;97.10;;;;;;4942741;28;20113;-71
2022/08/18 03:21:14;;;;;;;13.75;3.45;;;22.30;97.20;;;;;;4957209;28;20059;-71
2022/08/18 03:23:40;;;;;;;12.73;3.63;;;22.40;97.30;;;;;;4955693;28;20039;-71
2022/08/18 03:26:11;;;;;;;14.93;3.90;;;22.30;97.20;;;;;;4956710;28;20054;-71
2022/08/18 03:28:39;;;;;;;13.60;3.80;;;22.30;97.30;;;;;;4956134;28;20483;-71
2022/08/18 03:31:06;;;;;;;14.63;3.70;;;22.30;97.30;;;;;;4955855;28;20106;-71
2022/08/18 03:33:32;;;;;;;15.00;3.20;;;22.40;97.40;;;;;;4944241;28;20099;-71
2022/08/18 03:36:08;;;;;;;12.02;2.88;;;22.40;97.30;;;;;;4943447;28;20063;-71
2022/08/18 03:38:34;;;;;;;18.83;3.42;;;22.40;97.20;;;;;;4956089;28;20075;-71
2022/08/18 03:41:00;;;;;;;17.92;4.30;;;22.40;97.20;;;;;;4955991;28;20443;-71
2022/08/18 03:43:25;;;;;;;12.98;3.00;;;22.40;97.10;;;;;;4948561;28;20054;-71
2022/08/18 03:45:53;;;;;;;18.73;3.30;;;22.40;97.10;;;;;;4936608;28;20051;-71
2022/08/18 03:48:20;;;;;;;15.35;3.17;;;22.40;97.00;;;;;;4937684;28;20032;-71
2022/08/18 03:50:47;;;;;;;11.52;3.03;;;22.40;96.90;;;;;;4951710;28;20039;-71
2022/08/18 03:53:13;;;;;;;12.05;3.28;;;22.40;97.10;;;;;;4955446;28;20424;-71
2022/08/18 03:55:41;;;;;;;13.20;3.30;;;22.50;97.00;;;;;;4942585;28;20039;-71
2022/08/18 03:58:07;;;;;;;18.77;3.63;;;22.40;97.00;;;;;;4955763;28;20039;-71
2022/08/18 04:00:37;;;;;;;15.20;4.20;;;22.50;96.90;;;;;;4941271;28;20100;-71
2022/08/18 04:03:03;;;;;;;22.83;3.88;;;22.40;97.00;;;;;;4938745;28;20055;-71
2022/08/18 04:05:28;;;;;;;13.63;3.85;;;22.40;97.00;;;;;;4948469;28;20111;-71
2022/08/18 04:07:55;;;;;;;12.73;3.50;;;22.40;97.00;;;;;;4938011;28;20040;-71
2022/08/18 04:10:24;;;;;;;17.80;4.15;;;22.40;97.00;;;;;;4950846;28;20454;-71
2022/08/18 04:12:50;;;;;;;11.95;3.65;;;22.40;96.90;;;;;;4965135;28;20078;-71
2022/08/18 04:15:16;;;;;;;15.60;3.60;;;22.40;96.70;;;;;;4955866;28;20436;-71
2022/08/18 04:17:44;;;;;;;14.20;3.28;;;22.50;96.70;;;;;;4956005;28;20043;-71
2022/08/18 04:20:12;;;;;;;16.98;3.50;;;22.50;97.00;;;;;;4953443;28;20116;-71
2022/08/18 04:22:38;;;;;;;12.95;3.55;;;22.40;96.70;;;;;;4955626;28;20043;-71
2022/08/18 04:25:08;;;;;;;14.38;3.63;;;22.40;96.70;;;;;;4951908;28;20106;-71
2022/08/18 04:27:34;;;;;;;10.95;3.95;;;22.40;96.70;;;;;;4946101;28;20067;-71
2022/08/18 04:30:00;;;;;;;10.98;3.05;;;22.40;96.80;;;;;;4941478;28;20118;-71
2022/08/18 04:32:29;;;;;;;10.93;3.22;;;22.50;96.80;;;;;;4955796;28;20487;-71
2022/08/18 04:34:54;;;;;;;11.23;3.50;;;22.40;96.80;;;;;;4950150;28;20387;-71
2022/08/18 04:37:20;;;;;;;9.90;2.97;;;22.40;96.90;;;;;;4947440;28;20134;-71
2022/08/18 04:39:46;;;;;;;11.95;2.92;;;22.40;96.90;;;;;;4954070;28;20031;-71
2022/08/18 04:42:12;;;;;;;13.73;3.45;;;22.40;97.00;;;;;;4955604;28;20101;-71
2022/08/18 04:44:38;;;;;;;12.73;3.45;;;22.40;97.10;;;;;;4950388;28;20028;-71
2022/08/18 04:47:06;;;;;;;10.48;3.72;;;22.40;97.20;;;;;;4946772;28;20042;-71
2022/08/18 04:49:32;;;;;;;16.80;3.47;;;22.40;97.30;;;;;;4954631;28;20055;-71
2022/08/18 04:54:42;;;;;;;12.88;3.15;;;22.40;97.30;;;;;;4951246;28;20114;-72
2022/08/18 04:57:16;;;;;;;14.15;3.33;;;22.50;97.20;;;;;;4952819;28;20123;-72
2022/08/18 04:59:44;;;;;;;14.70;3.55;;;22.40;97.20;;;;;;4953510;28;20031;-72
2022/08/18 05:02:11;;;;;;;12.57;3.85;;;22.50;97.20;;;;;;4951172;28;20110;-69
2022/08/18 05:04:39;;;;;;;11.10;3.67;;;22.40;97.20;;;;;;4954163;28;20328;-69
2022/08/18 05:07:08;;;;;;;11.68;3.08;;;22.50;97.20;;;;;;4953369;28;20388;-69
2022/08/18 05:09:34;;;;;;;12.50;3.45;;;22.50;97.20;;;;;;4950525;28;20035;-69
2022/08/18 05:12:05;;;;;;;13.95;4.47;;;22.50;97.20;;;;;;4953928;28;20036;-69
2022/08/18 05:14:32;;;;;;;14.00;3.55;;;22.50;97.30;;;;;;4953802;28;20038;-69
2022/08/18 05:16:58;;;;;;;15.88;3.83;;;22.40;97.10;;;;;;4954030;28;20039;-69
2022/08/18 05:19:25;;;;;;;15.48;3.75;;;22.40;97.20;;;;;;4942620;28;20035;-69
2022/08/18 05:21:52;;;;;;;9.52;4.07;;;22.50;97.30;;;;;;4945122;28;20036;-69
2022/08/18 05:24:19;;;;;;;16.35;3.88;;;22.40;97.20;;;;;;4942333;28;20042;-69
2022/08/18 05:26:45;;;;;;;11.73;3.35;;;22.50;97.30;;;;;;4943142;28;20035;-69
2022/08/18 05:29:11;;;;;;;19.10;3.80;;;22.50;97.40;;;;;;4952973;28;20049;-69
2022/08/18 05:31:37;;;;;;;11.15;3.90;;;22.50;97.40;;;;;;4937587;28;20479;-69
2022/08/18 05:34:03;;;;;;;20.58;4.32;;;22.50;97.30;;;;;;4942696;28;20115;-69
2022/08/18 05:36:49;;;;;;;13.82;3.35;;;22.50;97.30;;;;;;4947136;28;20047;-70
2022/08/18 05:39:18;;;;;;;14.25;3.50;;;22.50;97.40;;;;;;4941460;28;20043;-70
2022/08/18 05:41:43;;;;;;;15.30;3.83;;;22.50;97.20;;;;;;4948269;28;20042;-70
2022/08/18 05:44:17;;;;;;;20.50;3.88;;;22.50;97.10;;;;;;4945760;28;20035;-69
2022/08/18 05:46:54;;;;;;;9.90;3.35;;;22.50;97.10;;;;;;4951483;28;20042;-69
2022/08/18 05:49:20;;;;;;;13.55;2.67;;;22.50;97.10;;;;;;4951125;28;20038;-69
2022/08/18 05:51:49;;;;;;;16.88;3.53;;;22.50;96.70;;;;;;4952435;28;20427;-69
2022/08/18 05:57:05;;;;;;;10.77;3.55;;;22.50;96.80;;;;;;4951077;28;20035;-69
2022/08/18 05:59:35;;;;;;;7.07;3.00;;;22.50;96.90;;;;;;4950206;28;20039;-69
2022/08/18 06:02:25;;;;;;;15.35;3.40;;;22.50;96.90;;;;;;4950045;28;20507;-69
2022/08/18 06:05:10;;;;;;;14.57;3.22;;;22.50;96.90;;;;;;4952474;28;20126;-69
2022/08/18 06:07:58;;;;;;;14.20;3.63;;;22.60;96.60;;;;;;4935154;28;20122;-69
2022/08/18 06:10:24;;;;;;;8.13;3.55;;;22.60;96.60;;;;;;4950136;28;20054;-69
2022/08/18 06:12:58;;;;;;;12.68;3.45;;;22.50;96.50;;;;;;4950014;28;20490;-69
2022/08/18 06:15:32;;;;;;;14.23;3.25;;;22.60;96.60;;;;;;4948244;28;20067;-69
2022/08/18 06:18:21;;;;;;;14.93;2.92;;;22.50;96.50;;;;;;4951074;28;20035;-69
2022/08/18 06:21:05;;;;;;;9.82;2.90;;;22.60;96.50;;;;;;4951875;28;20039;-69
2022/08/18 06:23:42;;;;;;;9.50;2.80;;;22.50;96.40;;;;;;4948635;28;20086;-69
2022/08/18 06:26:21;;;;;;;12.75;3.25;;;22.50;96.30;;;;;;4951077;28;20464;-69
2022/08/18 06:28:56;;;;;;;14.82;4.45;;;22.50;96.20;;;;;;4951151;28;20048;-69
2022/08/18 06:31:49;;;;;;;10.80;3.10;;;22.60;96.10;;;;;;4949035;28;20446;-69
2022/08/18 06:34:24;;;;;;;10.35;3.00;;;22.60;96.10;;;;;;4948662;28;21301;-70
2022/08/18 06:36:54;;;;;;;7.53;2.60;;;22.50;96.10;;;;;;4946861;28;20041;-70
2022/08/18 06:39:41;;;;;;;10.55;3.00;;;22.60;96.10;;;;;;4945768;28;20769;-69
2022/08/18 06:42:07;;;;;;;8.35;2.70;;;22.50;96.10;;;;;;4949545;28;20028;-70
2022/08/18 06:44:44;;;;;;;11.15;2.88;;;22.50;95.80;;;;;;4932924;28;20692;-68
2022/08/18 06:47:31;;;;;;;9.35;2.85;;;22.50;95.80;;;;;;4950064;28;20027;-69
2022/08/18 06:50:18;;;;;;;10.02;2.67;;;22.50;95.80;;;;;;4950447;28;20028;-70
2022/08/18 06:53:05;;;;;;;11.25;3.05;;;22.50;95.50;;;;;;4949425;28;20383;-70
2022/08/18 06:55:33;;;;;;;5.88;2.22;;;22.50;95.70;;;;;;4953033;28;20031;-71
2022/08/18 06:58:04;;;;;;;11.52;2.85;;;22.50;95.80;;;;;;4953813;28;20047;-70
2022/08/18 07:00:33;;;;;;;11.52;2.75;;;22.50;95.50;;;;;;4954272;28;20110;-70
2022/08/18 07:03:11;;;;;;;16.15;2.78;;;22.50;95.20;;;;;;4952414;28;20043;-71
2022/08/18 07:05:54;;;;;;;15.77;2.85;;;22.40;95.20;;;;;;4952952;28;20055;-71
2022/08/18 07:08:37;;;;;;;14.20;3.35;;;22.40;95.30;;;;;;4953255;28;20158;-71
2022/08/18 07:11:28;;;;;;;12.45;2.55;;;22.40;95.20;;;;;;4952742;28;20042;-70
2022/08/18 07:13:57;;;;;;;8.85;2.17;;;22.40;95.10;;;;;;4954707;28;20028;-70
2022/08/18 07:16:30;;;;;;;11.32;2.20;;;22.40;95.00;;;;;;4951803;28;20039;-70
2022/08/18 07:19:05;;;;;;;;;;;22.40;95.10;;;;;;4951768;28;20768;-70
2022/08/18 07:21:33;;;;;;;7.45;1.83;;;22.40;94.80;;;;;;4945139;28;19925;-70
2022/08/18 07:24:04;;;;;;;14.70;2.17;;;22.40;95.10;;;;;;4937494;28;20028;-70
2022/08/18 07:26:50;;;;;;;15.00;2.15;;;22.40;95.40;;;;;;4940089;28;20066;-70
2022/08/18 07:29:15;;;;;;;5.30;2.10;;;22.30;95.40;;;;;;4939985;28;20030;-70
2022/08/18 07:31:48;;;;;;;8.23;1.95;;;22.40;95.40;;;;;;4936606;28;20038;-70
2022/08/18 07:34:26;;;;;;;11.43;2.20;;;22.30;95.50;;;;;;4941990;28;20028;-70
2022/08/18 07:37:06;;;;;;;10.45;2.10;;;22.30;95.50;;;;;;4937551;28;20047;-70
2022/08/18 07:39:54;;;;;;;8.82;2.42;;;22.30;95.60;;;;;;4946113;28;20038;-70
2022/08/18 07:42:35;;;;;;;11.45;1.83;;;22.40;95.50;;;;;;4949280;28;20046;-70
2022/08/18 07:45:19;;;;;;;6.72;1.67;;;22.40;95.40;;;;;;4944686;28;20039;-70
2022/08/18 07:47:57;;;;;;;9.75;2.67;;;22.30;95.40;;;;;;4941662;28;20593;-70
2022/08/18 07:50:26;;;;;;;6.40;1.80;;;22.40;95.50;;;;;;4949249;28;20030;-70
2022/08/18 07:53:27;;;;;;;11.60;2.00;;;22.30;95.40;;;;;;4942841;28;20027;-70
2022/08/18 07:56:02;;;;;;;8.20;1.70;;;22.40;95.50;;;;;;4939897;28;20388;-70
2022/08/18 07:58:36;;;;;;;12.18;2.17;;;22.40;95.50;;;;;;4939339;28;20044;-71
2022/08/18 08:01:21;;;;;;;6.30;2.05;;;22.40;95.70;;;;;;4940742;28;20106;-71
2022/08/18 08:04:01;;;;;;;4.72;1.50;;;22.30;95.80;;;;;;4946137;28;20067;-70
2022/08/18 08:06:34;;;;;;;4.05;1.40;;;22.40;95.80;;;;;;4949283;28;20046;-70
2022/08/18 08:09:30;;;;;;;8.25;2.05;;;22.40;95.60;;;;;;4948980;28;20035;-70
2022/08/18 08:12:11;;;;;;;5.40;2.05;;;22.40;95.60;;;;;;4948794;28;20027;-70
2022/08/18 08:14:48;;;;;;;9.25;1.80;;;22.50;95.60;;;;;;4948857;28;20038;-70
2022/08/18 08:17:23;;;;;;;8.05;1.52;;;22.40;95.60;;;;;;4947154;28;20098;-75
2022/08/18 08:20:17;;;;;;;8.13;1.63;;;22.50;95.40;;;;;;4947738;28;20023;-73
2022/08/18 08:22:58;;;;;;;6.10;1.63;;;22.40;95.30;;;;;;4946325;28;20035;-73
2022/08/18 08:25:29;;;;;;;8.48;1.70;;;22.50;95.30;;;;;;4949402;28;20513;-72
2022/08/18 08:28:08;;;;;;;5.90;1.80;;;22.40;95.30;;;;;;4951039;28;20023;-74
2022/08/18 08:31:03;;;;;;;6.95;1.60;;;22.40;95.30;;;;;;4951023;28;20038;-72
2022/08/18 08:33:48;;;;;;;11.82;1.80;;;22.40;95.30;;;;;;4942334;28;20043;-71
2022/08/18 08:36:27;;;;;;;7.40;1.73;;;22.50;95.30;;;;;;4943016;28;20031;-72
2022/08/18 08:39:11;;;;;;;10.75;1.75;;;22.40;95.50;;;;;;4939006;28;20032;-72
2022/08/18 08:41:51;;;;;;;7.05;1.60;;;22.40;95.40;;;;;;4940458;28;20019;-72
2022/08/18 08:44:39;;;;;;;6.65;1.48;;;22.40;95.50;;;;;;4947727;28;20043;-72
2022/08/18 08:47:16;;;;;;;6.65;1.70;;;22.50;95.50;;;;;;4946262;28;20174;-72
2022/08/18 08:50:06;;;;;;;6.95;1.80;;;22.40;95.40;;;;;;4942840;28;20094;-72
2022/08/18 08:52:50;;;;;;;5.32;1.55;;;22.50;95.60;;;;;;4941149;28;20084;-72
2022/08/18 08:55:40;;;;;;;5.95;1.88;;;22.50;95.60;;;;;;4942767;28;20027;-72
2022/08/18 08:58:27;;;;;;;6.15;2.72;;;22.60;95.50;;;;;;4937150;28;20091;-72
2022/08/18 09:00:53;;;;;;;10.07;1.70;;;22.60;95.60;;;;;;4941844;28;20043;-71
2022/08/18 09:03:41;;;;;;;8.20;1.70;;;22.60;95.40;;;;;;4945710;28;20455;-72
2022/08/18 09:06:13;;;;;;;7.05;2.35;;;22.70;95.60;;;;;;4940767;28;20348;-72
2022/08/18 09:09:20;;;;;;;6.50;1.83;;;22.70;95.40;;;;;;4950924;28;20024;-72
2022/08/18 09:12:10;;;;;;;11.95;2.40;;;22.70;95.30;;;;;;4942689;28;20067;-74
2022/08/18 09:15:15;;;;;;;9.60;1.92;;;22.70;95.20;;;;;;4940061;28;20044;-72
2022/08/18 09:18:04;;;;;;;6.85;1.85;;;22.80;95.20;;;;;;4953641;28;20054;-71
2022/08/18 09:21:23;;;;;;;10.23;2.25;;;22.80;95.20;;;;;;4943498;28;20134;-72
2022/08/18 09:23:52;;;;;;;7.47;1.60;;;22.80;95.20;;;;;;4890728;29;20025;-71
2022/08/18 09:26:42;;;;;;;6.53;2.15;;;22.80;95.10;;;;;;4950572;28;20055;-71
2022/08/18 09:29:23;;;;;;;10.82;2.38;;;22.80;95.20;;;;;;4932882;28;20035;-71
2022/08/18 09:32:15;;;;;;;5.97;1.85;;;22.80;95.10;;;;;;4950924;28;20059;-74
2022/08/18 09:35:00;;;;;;;8.05;1.60;;;22.90;95.20;;;;;;4911069;28;20043;-71
2022/08/18 09:43:51;;;;;;;12.85;1.88;;;22.90;95.40;;;;;;4940893;28;20373;-67
2022/08/18 09:46:39;;;;;;;5.70;2.00;;;22.90;95.30;;;;;;4945864;28;20036;-71
2022/08/18 09:49:25;;;;;;;7.05;1.90;;;22.90;95.30;;;;;;4952624;28;20118;-71
2022/08/18 09:51:55;;;;;;;5.10;1.70;;;23.00;95.30;;;;;;4947194;28;20271;-71
2022/08/18 09:54:30;;;;;;;6.95;1.90;;;23.00;95.30;;;;;;4951881;28;20229;-72
2022/08/18 09:57:16;;;;;;;7.57;1.77;;;23.00;95.30;;;;;;4948082;28;20031;-71
2022/08/18 09:59:45;;;;;;;8.43;1.75;;;23.00;95.30;;;;;;4935999;28;20063;-71
2022/08/18 10:02:31;;;;;;;5.85;1.58;;;23.10;95.40;;;;;;4950703;28;20058;-71
2022/08/18 10:05:15;;;;;;;7.60;1.92;;;23.00;95.30;;;;;;4950384;28;20394;-72
2022/08/18 10:07:42;;;;;;;5.20;1.60;;;23.00;95.30;;;;;;4951143;28;20057;-72
2022/08/18 10:10:43;;;;;;;4.13;1.20;;;23.10;95.40;;;;;;4943470;28;20042;-71
2022/08/18 10:13:21;;;;;;;6.55;1.65;;;23.10;95.20;;;;;;4939539;28;20053;-71
2022/08/18 10:16:09;;;;;;;5.80;1.92;;;23.10;95.20;;;;;;4935738;28;20032;-72
2022/08/18 10:18:50;;;;;;;4.03;1.48;;;23.20;95.20;;;;;;4949606;28;20038;-71
2022/08/18 10:21:26;;;;;;;9.15;2.15;;;23.20;95.10;;;;;;4954122;28;20041;-71
2022/08/18 10:24:04;;;;;;;13.52;2.03;;;23.20;95.10;;;;;;4951351;28;20023;-72
2022/08/18 10:26:29;;;;;;;11.48;2.22;;;23.20;95.10;;;;;;4950367;28;20130;-72
2022/08/18 10:29:00;;;;;;;10.45;1.92;;;23.20;95.10;;;;;;4947693;28;20506;-72
2022/08/18 10:31:27;;;;;;;5.72;2.00;;;23.30;95.30;;;;;;4951578;28;20042;-72
2022/08/18 10:34:10;;;;;;;6.30;1.52;;;23.30;95.00;;;;;;4935110;28;20023;-71
2022/08/18 10:36:38;;;;;;;9.07;1.80;;;23.30;95.00;;;;;;4943476;28;20569;-71
2022/08/18 10:39:15;;;;;;;8.30;1.67;;;23.30;94.80;;;;;;4942705;28;20039;-71
2022/08/18 10:41:55;;;;;;;11.63;2.08;;;23.40;94.90;;;;;;4936615;28;20035;-71
2022/08/18 10:44:22;;;;;;;8.15;2.08;;;23.40;94.90;;;;;;4936173;28;20027;-71
2022/08/18 10:46:49;;;;;;;6.97;1.67;;;23.40;94.80;;;;;;4934727;28;20122;-71
2022/08/18 10:49:22;;;;;;;12.95;2.40;;;23.50;94.70;;;;;;4933041;28;20388;-71
2022/08/18 10:52:02;;;;;;;10.55;1.70;;;23.50;94.70;;;;;;4934440;28;20122;-71
2022/08/18 10:54:59;;;;;;;7.07;2.03;;;23.50;94.70;;;;;;4932549;28;20031;-72
2022/08/18 10:57:59;;;;;;;3.35;1.98;;;23.50;94.60;;;;;;4934835;28;20044;-72
2022/08/18 11:00:37;;;;;;;7.43;2.10;;;23.50;94.50;;;;;;4936471;28;20074;-71
2022/08/18 11:04:07;;;;;;;5.25;1.88;;;23.50;94.40;;;;;;4935026;28;20511;-71
2022/08/18 11:06:42;;;;;;;4.55;1.70;;;23.50;94.40;;;;;;4905453;29;20036;-72
2022/08/18 11:09:09;;;;;;;7.25;1.65;;;23.60;94.60;;;;;;4896320;29;20064;-71
2022/08/18 11:11:41;;;;;;;5.70;1.77;;;23.60;94.30;;;;;;4931886;28;20122;-71
2022/08/18 11:14:48;;;;;;;7.45;1.85;;;23.60;94.10;;;;;;4940969;28;20111;-71
2022/08/18 11:17:38;;;;;;;3.72;1.70;;;23.60;94.30;;;;;;4932840;28;20051;-71
2022/08/18 11:20:08;;;;;;;6.43;2.30;;;23.60;94.20;;;;;;4929012;28;20042;-71
2022/08/18 11:22:35;;;;;;;7.47;1.73;;;23.60;94.10;;;;;;4933922;28;20042;-71
2022/08/18 11:25:04;;;;;;;7.85;2.00;;;23.60;94.00;;;;;;4932550;28;20036;-72
2022/08/18 11:27:34;;;;;;;6.13;1.80;;;23.60;93.90;;;;;;4930129;28;20128;-71
2022/08/18 11:30:03;;;;;;;4.85;1.77;;;23.60;94.00;;;;;;4932560;28;20024;-71
2022/08/18 11:32:38;;;;;;;4.70;1.85;;;23.70;94.00;;;;;;4941152;28;20103;-72
2022/08/18 11:35:13;;;;;;;4.75;1.45;;;23.70;93.90;;;;;;4940334;28;20035;-71
2022/08/18 11:37:46;;;;;;;4.95;2.00;;;23.70;93.80;;;;;;4939421;28;20036;-71
2022/08/18 11:40:18;;;;;;;3.10;1.48;;;23.70;93.70;;;;;;4933898;28;20728;-72
2022/08/18 11:43:05;;;;;;;4.88;1.70;;;23.70;93.70;;;;;;4938107;28;21317;-73
2022/08/18 11:45:35;;;;;;;5.10;1.65;;;23.70;93.70;;;;;;4935911;28;20087;-71
2022/08/18 11:48:13;;;;;;;4.65;1.63;;;23.80;93.70;;;;;;4939416;28;20357;-72
2022/08/18 11:51:08;;;;;;;3.05;1.50;;;23.80;93.40;;;;;;4940875;28;20115;-72
2022/08/18 11:53:57;;;;;;;4.45;1.48;;;23.80;93.40;;;;;;4947059;28;20106;-72
2022/08/18 11:56:31;;;;;;;3.17;1.50;;;23.80;93.40;;;;;;4954185;28;20050;-72
2022/08/18 11:59:31;;;;;;;8.07;1.38;;;23.90;93.40;;;;;;4955593;28;20073;-71
2022/08/18 12:01:58;;;;;;;4.13;1.48;;;23.90;93.40;;;;;;4952612;28;20082;-72
2022/08/18 12:04:37;;;;;;;2.90;1.27;;;23.90;93.60;;;;;;4954154;28;20031;-72
2022/08/18 12:07:09;;;;;;;2.90;1.48;;;23.90;93.40;;;;;;4953157;28;20123;-71
2022/08/18 12:09:37;;;;;;;6.88;1.63;;;24.00;93.50;;;;;;4954052;28;20035;-71
2022/08/18 12:12:29;;;;;;;2.17;1.10;;;24.00;93.50;;;;;;4956415;28;20446;-71
2022/08/18 12:14:59;;;;;;;3.90;1.42;;;24.00;93.50;;;;;;4952899;28;20027;-71
2022/08/18 12:17:28;;;;;;;3.75;1.67;;;24.00;93.40;;;;;;4952790;28;20107;-71
2022/08/18 12:19:56;;;;;;;5.07;1.60;;;24.00;93.70;;;;;;4954084;28;20031;-71
2022/08/18 12:22:24;;;;;;;4.95;1.25;;;24.00;93.30;;;;;;4954984;28;20051;-71
2022/08/18 12:24:51;;;;;;;4.30;1.55;;;24.10;93.30;;;;;;4953751;28;20394;-71
2022/08/18 12:27:21;;;;;;;10.50;1.67;;;24.10;93.40;;;;;;4953295;28;20042;-71
2022/08/18 12:29:46;;;;;;;8.73;2.08;;;24.10;93.40;;;;;;4950201;28;20054;-71
2022/08/18 12:32:12;;;;;;;12.93;1.60;;;24.10;93.40;;;;;;4953599;28;20517;-71
2022/08/18 12:34:38;;;;;;;5.00;1.50;;;24.10;93.40;;;;;;4952314;28;20119;-71
2022/08/18 12:37:08;;;;;;;4.90;1.88;;;24.20;93.30;;;;;;4954060;28;20587;-72
2022/08/18 12:39:35;;;;;;;4.15;1.50;;;24.20;93.20;;;;;;4952965;28;20047;-71
2022/08/18 12:42:01;;;;;;;1.95;1.50;;;24.20;92.80;;;;;;4948105;28;20031;-72
2022/08/18 12:44:27;;;;;;;7.93;1.83;;;24.30;92.80;;;;;;4943389;28;20098;-71
2022/08/18 12:46:54;;;;;;;6.35;1.60;;;24.30;92.70;;;;;;4942399;28;20112;-72
2022/08/18 12:49:23;;;;;;;5.47;1.42;;;24.30;92.40;;;;;;4945284;28;20090;-72
2022/08/18 12:51:50;;;;;;;3.72;1.63;;;24.40;92.40;;;;;;4949912;28;20100;-71
2022/08/18 12:54:16;;;;;;;4.93;2.25;;;24.40;92.60;;;;;;4953421;28;20031;-72
2022/08/18 12:56:45;;;;;;;4.55;1.80;;;24.50;92.60;;;;;;4944065;28;20036;-73
2022/08/18 12:59:10;;;;;;;5.43;1.67;;;24.50;92.50;;;;;;4951540;28;20122;-71
2022/08/18 13:01:38;;;;;;;1.55;1.33;;;24.60;92.40;;;;;;4953177;28;20127;-71
2022/08/18 13:04:04;;;;;;;2.65;1.88;;;24.60;92.40;;;;;;4949806;28;20039;-80
2022/08/18 13:06:33;;;;;;;2.15;1.52;;;24.60;92.30;;;;;;4951434;28;20031;-72
2022/08/18 13:08:58;;;;;;;3.38;1.65;;;24.60;92.10;;;;;;4940126;28;20387;-72
2022/08/18 13:11:24;;;;;;;2.15;1.50;;;24.60;92.20;;;;;;4952643;28;20038;-72
2022/08/18 13:13:52;;;;;;;4.72;1.65;;;24.60;92.00;;;;;;4953027;28;20035;-72
2022/08/18 13:16:18;;;;;;;4.55;1.70;;;24.60;92.00;;;;;;4953064;28;20035;-72
2022/08/18 13:18:44;;;;;;;4.45;1.60;;;24.60;91.70;;;;;;4953544;28;20082;-72
2022/08/18 13:21:15;;;;;;;5.53;1.80;;;24.60;91.40;;;;;;4947957;28;20471;-72
2022/08/18 13:23:41;;;;;;;4.13;1.63;;;24.70;91.60;;;;;;4953376;28;20034;-72
2022/08/18 13:26:11;;;;;;;3.72;1.42;;;24.70;91.70;;;;;;4953035;28;20034;-72
2022/08/18 13:28:38;;;;;;;2.92;1.42;;;24.70;91.70;;;;;;4949207;28;20106;-72
2022/08/18 13:31:03;;;;;;;3.42;1.65;;;24.70;91.60;;;;;;4954491;28;20042;-72